createdAt,value
2023-04-16T00:02:04.376Z,98.61
2023-04-16T00:04:31.825Z,98.63
2023-04-16T00:06:58.855Z,98.79
2023-04-16T00:09:25.915Z,98.46
2023-04-16T00:11:53.129Z,98.17
2023-04-16T00:14:20.465Z,98.72
2023-04-16T00:16:47.652Z,98.18
2023-04-16T00:19:14.533Z,98.34
2023-04-16T00:21:41.423Z,98.23
2023-04-16T00:24:08.349Z,98.65
2023-04-16T00:26:35.176Z,98.49
2023-04-16T00:29:02.109Z,98.15
2023-04-16T00:31:31.025Z,98.10
2023-04-16T00:33:59.064Z,98.08
2023-04-16T00:36:28.074Z,98.27
2023-04-16T00:38:55.711Z,98.35
2023-04-16T00:41:25.353Z,98.17
2023-04-16T00:43:52.611Z,98.68
2023-04-16T00:46:21.369Z,98.39
2023-04-16T00:48:49.216Z,98.36
2023-04-16T00:51:16.860Z,98.00
2023-04-16T00:53:45.728Z,98.40
2023-04-16T00:56:13.448Z,98.68
2023-04-16T00:58:40.379Z,98.33
2023-04-16T01:01:07.328Z,98.14
2023-04-16T01:03:39.995Z,98.02
2023-04-16T01:06:07.780Z,98.10
2023-04-16T01:08:34.826Z,98.27
2023-04-16T01:11:02.518Z,98.37
2023-04-16T01:13:29.690Z,97.79
2023-04-16T01:15:56.701Z,97.83
2023-04-16T01:18:24.184Z,97.87
2023-04-16T01:20:51.607Z,98.08
2023-04-16T01:23:19.349Z,98.24
2023-04-16T01:25:47.041Z,98.36
2023-04-16T01:28:14.017Z,98.58
2023-04-16T01:30:43.179Z,98.57
2023-04-16T01:33:21.729Z,98.59
2023-04-16T01:35:48.793Z,98.48
2023-04-16T01:38:16.237Z,98.62
2023-04-16T01:40:43.983Z,98.65
2023-04-16T01:43:12.418Z,98.54
2023-04-16T01:45:39.435Z,98.72
2023-04-16T01:48:06.926Z,98.52
2023-04-16T01:50:34.022Z,99.07
2023-04-16T01:53:02.368Z,98.97
2023-04-16T01:55:29.401Z,98.89
2023-04-16T01:57:56.483Z,99.03
2023-04-16T02:00:27.149Z,99.42
2023-04-16T02:02:54.455Z,98.88
2023-04-16T02:05:26.556Z,98.83
2023-04-16T02:07:53.565Z,98.74
2023-04-16T02:10:20.885Z,98.94
2023-04-16T02:12:48.448Z,99.33
2023-04-16T02:15:16.619Z,98.74
2023-04-16T02:17:44.061Z,98.59
2023-04-16T02:20:11.482Z,98.85
2023-04-16T02:22:44.891Z,98.59
2023-04-16T02:25:16.181Z,98.74
2023-04-16T02:27:43.868Z,98.61
2023-04-16T02:30:23.359Z,98.71
2023-04-16T02:32:51.714Z,98.45
2023-04-16T02:35:19.586Z,98.63
2023-04-16T02:37:46.645Z,98.83
2023-04-16T02:40:13.449Z,99.00
2023-04-16T02:42:40.521Z,98.33
2023-04-16T02:45:08.851Z,98.33
2023-04-16T02:47:35.956Z,98.54
2023-04-16T02:50:04.028Z,98.95
2023-04-16T02:52:32.476Z,98.83
2023-04-16T02:55:00.028Z,98.80
2023-04-16T02:57:27.117Z,98.68
2023-04-16T02:59:54.045Z,98.60
2023-04-16T03:02:21.014Z,98.97
2023-04-16T03:04:48.187Z,98.66
2023-04-16T03:07:15.287Z,98.68
2023-04-16T03:09:42.179Z,99.09
2023-04-16T03:12:09.187Z,98.72
2023-04-16T03:14:36.404Z,99.18
2023-04-16T03:17:03.322Z,98.85
2023-04-16T03:19:30.556Z,98.98
2023-04-16T03:21:57.555Z,98.75
2023-04-16T03:24:24.404Z,98.86
2023-04-16T03:26:51.351Z,99.22
2023-04-16T03:29:21.555Z,98.81
2023-04-16T03:31:48.961Z,99.22
2023-04-16T03:34:16.216Z,99.12
2023-04-16T03:36:43.150Z,99.43
2023-04-16T03:39:10.387Z,99.37
2023-04-16T03:41:37.700Z,98.87
2023-04-16T03:44:04.710Z,98.87
2023-04-16T03:46:35.813Z,98.67
2023-04-16T03:49:02.809Z,98.86
2023-04-16T03:51:29.817Z,98.59
2023-04-16T03:53:57.310Z,98.93
2023-04-16T03:56:25.981Z,98.90
2023-04-16T03:58:53.637Z,99.01
2023-04-16T04:01:20.682Z,98.98
2023-04-16T04:03:47.733Z,98.96
2023-04-16T04:06:15.894Z,98.95
2023-04-16T04:08:43.030Z,99.08
2023-04-16T04:11:10.431Z,99.06
2023-04-16T04:13:39.203Z,98.82
2023-04-16T04:16:06.412Z,98.96
2023-04-16T04:18:33.526Z,98.94
2023-04-16T04:21:00.525Z,98.85
2023-04-16T04:23:30.258Z,98.90
2023-04-16T04:25:57.219Z,99.03
2023-04-16T04:28:24.806Z,98.88
2023-04-16T04:30:51.754Z,98.59
2023-04-16T04:33:19.087Z,98.79
2023-04-16T04:35:47.667Z,98.68
2023-04-16T04:38:16.239Z,98.87
2023-04-16T04:40:43.237Z,98.96
2023-04-16T04:43:10.158Z,98.62
2023-04-16T04:45:37.196Z,98.79
2023-04-16T04:48:05.456Z,98.90
2023-04-16T04:50:32.667Z,99.05
2023-04-16T04:52:59.456Z,98.83
2023-04-16T04:55:27.036Z,98.92
2023-04-16T04:57:53.812Z,99.09
2023-04-16T05:00:21.481Z,99.02
2023-04-16T05:02:53.841Z,98.93
2023-04-16T05:05:21.077Z,99.06
2023-04-16T05:07:47.830Z,98.86
2023-04-16T05:10:14.819Z,98.83
2023-04-16T05:12:41.724Z,98.66
2023-04-16T05:15:09.112Z,98.27
2023-04-16T05:17:35.988Z,98.02
2023-04-16T05:20:02.927Z,97.74
2023-04-16T05:22:29.774Z,97.75
2023-04-16T05:24:56.656Z,97.57
2023-04-16T05:27:23.587Z,98.07
2023-04-16T05:29:50.491Z,97.18
2023-04-16T05:32:17.428Z,97.30
2023-04-16T05:34:44.251Z,96.89
2023-04-16T05:37:11.222Z,96.59
2023-04-16T05:39:38.054Z,96.13
2023-04-16T05:42:04.885Z,96.26
2023-04-16T05:44:31.894Z,96.28
2023-04-16T05:46:58.762Z,95.53
2023-04-16T05:49:25.693Z,95.82
2023-04-16T05:51:52.493Z,95.42
2023-04-16T05:54:19.399Z,94.67
2023-04-16T05:56:46.226Z,95.54
2023-04-16T05:59:13.127Z,95.46
2023-04-16T06:01:41.299Z,95.27
2023-04-16T06:04:08.269Z,95.62
2023-04-16T06:06:37.555Z,94.43
2023-04-16T06:09:04.547Z,94.55
2023-04-16T06:11:31.435Z,94.64
2023-04-16T06:13:58.313Z,94.64
2023-04-16T06:16:25.586Z,94.11
2023-04-16T06:18:52.501Z,93.58
2023-04-16T06:21:19.418Z,93.66
2023-04-16T06:23:46.276Z,93.54
2023-04-16T06:26:13.041Z,93.63
2023-04-16T06:28:39.834Z,94.09
2023-04-16T06:31:06.739Z,93.36
2023-04-16T06:33:33.579Z,91.61
2023-04-16T06:36:00.418Z,91.97
2023-04-16T06:38:27.422Z,89.20
2023-04-16T06:40:54.361Z,87.36
2023-04-16T06:43:21.854Z,87.95
2023-04-16T06:45:48.694Z,87.26
2023-04-16T06:48:15.695Z,87.53
2023-04-16T06:50:42.605Z,87.99
2023-04-16T06:53:09.521Z,88.22
2023-04-16T06:55:36.386Z,87.12
2023-04-16T06:58:03.862Z,87.01
2023-04-16T07:00:30.739Z,85.26
2023-04-16T07:02:58.692Z,86.21
2023-04-16T07:05:26.351Z,86.59
2023-04-16T07:07:53.172Z,82.96
2023-04-16T07:10:19.988Z,84.12
2023-04-16T07:12:46.807Z,84.71
2023-04-16T07:15:13.743Z,83.34
2023-04-16T07:17:40.693Z,83.10
2023-04-16T07:20:08.332Z,83.25
2023-04-16T07:22:35.137Z,84.71
2023-04-16T07:25:01.986Z,83.34
2023-04-16T07:27:28.784Z,83.19
2023-04-16T07:29:55.980Z,83.19
2023-04-16T07:32:23.054Z,83.68
2023-04-16T07:34:49.889Z,83.04
2023-04-16T07:37:16.702Z,83.21
2023-04-16T07:39:43.530Z,83.04
2023-04-16T07:42:10.782Z,81.47
2023-04-16T07:44:37.663Z,82.49
2023-04-16T07:47:05.766Z,80.44
2023-04-16T07:49:32.866Z,81.90
2023-04-16T07:51:59.682Z,80.27
2023-04-16T07:54:28.490Z,81.25
2023-04-16T07:56:56.120Z,81.57
2023-04-16T07:59:24.306Z,81.97
2023-04-16T08:01:54.204Z,81.91
2023-04-16T08:04:25.620Z,82.02
2023-04-16T08:06:52.916Z,80.71
2023-04-16T08:09:21.096Z,78.94
2023-04-16T08:11:49.439Z,79.44
2023-04-16T08:14:17.618Z,78.74
2023-04-16T08:16:44.716Z,77.44
2023-04-16T08:19:11.786Z,78.08
2023-04-16T08:21:39.049Z,76.64
2023-04-16T08:24:06.276Z,76.23
2023-04-16T08:26:33.116Z,76.95
2023-04-16T08:28:59.963Z,79.47
2023-04-16T08:31:27.025Z,79.44
2023-04-16T08:33:53.912Z,77.92
2023-04-16T08:36:21.051Z,76.69
2023-04-16T08:38:47.837Z,75.60
2023-04-16T08:41:15.219Z,77.57
2023-04-16T08:43:48.766Z,76.09
2023-04-16T08:46:17.961Z,76.81
2023-04-16T08:48:49.625Z,78.03
2023-04-16T08:51:18.637Z,76.03
2023-04-16T08:54:05.794Z,76.55
2023-04-16T08:56:36.916Z,76.17
2023-04-16T08:59:07.294Z,77.04
2023-04-16T09:01:35.635Z,74.88
2023-04-16T09:04:03.551Z,76.48
2023-04-16T09:06:31.761Z,75.44
2023-04-16T09:08:59.727Z,75.74
2023-04-16T09:11:26.842Z,75.18
2023-04-16T09:13:54.035Z,75.86
2023-04-16T09:16:21.683Z,76.53
2023-04-16T09:18:48.586Z,77.74
2023-04-16T09:21:15.604Z,75.93
2023-04-16T09:23:42.534Z,76.05
2023-04-16T09:26:09.501Z,74.19
2023-04-16T09:28:47.119Z,75.87
2023-04-16T09:31:13.963Z,75.12
2023-04-16T09:33:41.788Z,73.43
2023-04-16T09:36:09.273Z,75.15
2023-04-16T09:38:50.166Z,75.19
2023-04-16T09:41:17.438Z,74.71
2023-04-16T09:43:59.247Z,75.61
2023-04-16T09:46:36.717Z,74.10
2023-04-16T09:49:16.971Z,77.24
2023-04-16T09:51:48.258Z,74.96
2023-04-16T09:54:16.063Z,76.42
2023-04-16T09:56:44.756Z,74.38
2023-04-16T09:59:21.718Z,73.92
2023-04-16T10:02:14.343Z,74.00
2023-04-16T10:04:51.150Z,73.55
2023-04-16T10:07:19.312Z,71.61
2023-04-16T10:09:48.736Z,73.59
2023-04-16T10:12:16.368Z,71.55
2023-04-16T10:14:43.411Z,70.87
2023-04-16T10:17:10.514Z,70.60
2023-04-16T10:19:37.917Z,70.56
2023-04-16T10:22:05.680Z,68.79
2023-04-16T10:24:34.548Z,70.28
2023-04-16T10:27:01.596Z,69.22
2023-04-16T10:29:30.248Z,68.17
2023-04-16T10:31:57.950Z,68.04
2023-04-16T10:34:26.093Z,71.36
2023-04-16T10:36:54.283Z,68.54
2023-04-16T10:39:24.007Z,69.38
2023-04-16T10:41:51.292Z,68.17
2023-04-16T10:44:19.718Z,68.26
2023-04-16T10:46:49.985Z,70.20
2023-04-16T10:49:19.345Z,69.09
2023-04-16T10:52:00.792Z,68.82
2023-04-16T10:54:32.594Z,68.87
2023-04-16T10:57:04.533Z,70.25
2023-04-16T10:59:35.057Z,69.92
2023-04-16T11:02:08.080Z,68.11
2023-04-16T11:04:37.648Z,68.08
2023-04-16T11:07:07.030Z,70.03
2023-04-16T11:09:52.400Z,70.20
2023-04-16T11:12:22.485Z,70.63
2023-04-16T11:14:55.132Z,65.86
2023-04-16T11:17:22.420Z,66.81
2023-04-16T11:19:49.486Z,67.96
2023-04-16T11:22:18.119Z,67.14
2023-04-16T11:24:46.550Z,65.50
2023-04-16T11:27:14.744Z,66.94
2023-04-16T11:29:42.412Z,63.54
2023-04-16T11:32:09.245Z,65.00
2023-04-16T11:34:45.023Z,64.52
2023-04-16T11:37:11.957Z,67.12
2023-04-16T11:39:49.880Z,64.04
2023-04-16T11:42:23.261Z,64.27
2023-04-16T11:44:55.210Z,63.67
2023-04-16T11:47:24.196Z,62.38
2023-04-16T11:49:51.661Z,62.06
2023-04-16T11:52:33.797Z,62.46
2023-04-16T11:55:00.645Z,61.50
2023-04-16T11:57:31.612Z,60.99
2023-04-16T12:00:01.337Z,61.84
2023-04-16T12:02:50.079Z,60.70
2023-04-16T12:05:35.183Z,60.79
2023-04-16T12:08:04.398Z,60.28
2023-04-16T12:10:35.315Z,60.63
2023-04-16T12:13:15.618Z,60.02
2023-04-16T12:15:57.325Z,60.56
2023-04-16T12:18:28.938Z,61.20
2023-04-16T12:20:55.805Z,60.54
2023-04-16T12:23:27.682Z,59.58
2023-04-16T12:25:55.558Z,58.33
2023-04-16T12:28:34.290Z,58.14
2023-04-16T12:31:02.064Z,59.72
2023-04-16T12:33:29.604Z,56.73
2023-04-16T12:35:56.934Z,57.63
2023-04-16T12:38:24.629Z,57.24
2023-04-16T12:40:52.170Z,56.28
2023-04-16T12:43:19.993Z,52.40
2023-04-16T12:45:46.964Z,54.33
2023-04-16T12:48:13.841Z,52.31
2023-04-16T12:50:40.843Z,51.08
2023-04-16T12:53:07.789Z,52.13
2023-04-16T12:55:34.650Z,54.80
2023-04-16T12:58:01.880Z,55.95
2023-04-16T13:00:28.747Z,56.40
2023-04-16T13:02:56.347Z,55.90
2023-04-16T13:05:23.307Z,57.85
2023-04-16T13:07:50.139Z,60.28
2023-04-16T13:10:17.616Z,60.60
2023-04-16T13:12:44.551Z,60.85
2023-04-16T13:15:11.758Z,61.45
2023-04-16T13:17:38.645Z,62.94
2023-04-16T13:20:06.064Z,62.16
2023-04-16T13:22:33.550Z,62.35
2023-04-16T13:25:00.597Z,61.36
2023-04-16T13:27:27.494Z,61.95
2023-04-16T13:29:54.405Z,61.31
2023-04-16T13:32:21.431Z,61.63
2023-04-16T13:34:48.329Z,62.78
2023-04-16T13:37:15.199Z,62.34
2023-04-16T13:39:42.034Z,64.63
2023-04-16T13:42:08.834Z,65.08
2023-04-16T13:44:35.756Z,65.10
2023-04-16T13:47:02.720Z,62.86
2023-04-16T13:49:29.868Z,62.66
2023-04-16T13:51:56.765Z,64.53
2023-04-16T13:54:23.611Z,63.42
2023-04-16T13:56:51.372Z,62.74
2023-04-16T13:59:18.694Z,63.99
2023-04-16T14:01:45.693Z,64.84
2023-04-16T14:04:12.652Z,64.86
2023-04-16T14:06:39.466Z,64.93
2023-04-16T14:09:06.328Z,64.87
2023-04-16T14:11:33.375Z,64.47
2023-04-16T14:14:00.289Z,64.79
2023-04-16T14:16:27.763Z,65.83
2023-04-16T14:18:54.718Z,65.56
2023-04-16T14:21:21.637Z,65.50
2023-04-16T14:23:48.503Z,64.76
2023-04-16T14:26:15.802Z,65.32
2023-04-16T14:28:42.669Z,63.56
2023-04-16T14:31:09.623Z,62.32
2023-04-16T14:33:37.103Z,64.24
2023-04-16T14:36:04.398Z,62.14
2023-04-16T14:38:31.473Z,61.19
2023-04-16T14:40:58.576Z,61.30
2023-04-16T14:43:25.411Z,61.41
2023-04-16T14:45:52.912Z,60.61
2023-04-16T14:48:19.850Z,59.49
2023-04-16T14:50:46.790Z,59.66
2023-04-16T14:53:14.034Z,59.41
2023-04-16T14:55:41.048Z,57.91
2023-04-16T14:58:08.013Z,57.75
2023-04-16T15:00:35.783Z,59.50
2023-04-16T15:03:02.856Z,58.54
2023-04-16T15:05:31.714Z,59.22
2023-04-16T15:07:58.606Z,63.66
2023-04-16T15:10:25.525Z,61.28
2023-04-16T15:12:52.384Z,61.22
2023-04-16T15:15:19.284Z,61.42
2023-04-16T15:17:46.195Z,58.19
2023-04-16T15:20:13.667Z,57.68
2023-04-16T15:22:40.776Z,56.01
2023-04-16T15:25:08.134Z,54.55
2023-04-16T15:27:35.092Z,52.84
2023-04-16T15:30:02.128Z,51.18
2023-04-16T15:32:29.079Z,50.43
2023-04-16T15:34:56.330Z,50.30
2023-04-16T15:37:24.098Z,49.45
2023-04-16T15:39:51.042Z,50.52
2023-04-16T15:42:17.925Z,54.86
2023-04-16T15:44:44.878Z,57.09
2023-04-16T15:47:11.744Z,58.06
2023-04-16T15:49:38.684Z,60.62
2023-04-16T15:52:05.886Z,62.94
2023-04-16T15:54:32.811Z,63.03
2023-04-16T15:56:59.672Z,64.20
2023-04-16T15:59:27.090Z,65.68
2023-04-16T16:01:54.083Z,65.67
2023-04-16T16:04:26.521Z,66.80
2023-04-16T16:06:54.116Z,67.28
2023-04-16T16:09:26.015Z,65.90
2023-04-16T16:11:54.550Z,66.03
2023-04-16T16:14:22.476Z,67.16
2023-04-16T16:16:49.429Z,68.63
2023-04-16T16:19:16.739Z,69.03
2023-04-16T16:21:43.709Z,68.67
2023-04-16T16:24:10.491Z,68.14
2023-04-16T16:26:37.764Z,69.86
2023-04-16T16:29:05.824Z,70.07
2023-04-16T16:31:32.714Z,70.39
2023-04-16T16:33:59.601Z,70.33
2023-04-16T16:36:26.791Z,70.54
2023-04-16T16:38:53.674Z,70.28
2023-04-16T16:41:20.793Z,71.22
2023-04-16T16:43:47.662Z,71.25
2023-04-16T16:46:14.603Z,72.39
2023-04-16T16:48:41.439Z,70.83
2023-04-16T16:51:11.534Z,70.74
2023-04-16T16:53:38.435Z,70.18
2023-04-16T16:56:05.558Z,70.52
2023-04-16T16:58:32.348Z,71.51
2023-04-16T17:00:59.357Z,70.47
2023-04-16T17:03:26.373Z,70.14
2023-04-16T17:05:53.282Z,71.59
2023-04-16T17:08:20.138Z,70.04
2023-04-16T17:10:46.989Z,69.27
2023-04-16T17:13:15.382Z,71.14
2023-04-16T17:15:42.183Z,72.58
2023-04-16T17:18:09.041Z,70.85
2023-04-16T17:20:35.951Z,70.08
2023-04-16T17:23:03.244Z,70.96
2023-04-16T17:25:30.301Z,71.47
2023-04-16T17:27:57.215Z,70.56
2023-04-16T17:30:26.114Z,70.02
2023-04-16T17:32:55.988Z,71.87
2023-04-16T17:35:23.071Z,72.64
2023-04-16T17:37:49.911Z,72.89
2023-04-16T17:40:18.424Z,72.34
2023-04-16T17:42:45.760Z,72.62
2023-04-16T17:45:12.912Z,74.00
2023-04-16T17:47:39.789Z,73.17
2023-04-16T17:50:07.741Z,73.89
2023-04-16T17:52:34.566Z,74.00
2023-04-16T17:55:01.774Z,75.54
2023-04-16T17:57:29.060Z,75.58
2023-04-16T17:59:56.556Z,76.06
2023-04-16T18:02:23.731Z,75.91
2023-04-16T18:04:51.623Z,75.82
2023-04-16T18:07:18.577Z,77.01
2023-04-16T18:09:45.492Z,77.53
2023-04-16T18:12:12.346Z,77.21
2023-04-16T18:14:40.820Z,77.76
2023-04-16T18:17:07.694Z,78.42
2023-04-16T18:19:35.758Z,78.84
2023-04-16T18:22:02.878Z,79.02
2023-04-16T18:24:29.899Z,79.29
2023-04-16T18:26:56.985Z,79.46
2023-04-16T18:29:25.256Z,79.30
2023-04-16T18:31:52.549Z,79.33
2023-04-16T18:34:19.623Z,79.57
2023-04-16T18:36:46.939Z,79.18
2023-04-16T18:39:13.882Z,79.15
2023-04-16T18:41:41.847Z,79.66
2023-04-16T18:44:10.897Z,79.56
2023-04-16T18:46:37.826Z,80.64
2023-04-16T18:49:04.729Z,80.82
2023-04-16T18:51:31.871Z,80.06
2023-04-16T18:53:58.811Z,81.02
2023-04-16T18:56:25.745Z,81.58
2023-04-16T18:58:52.667Z,80.42
2023-04-16T19:01:19.595Z,80.78
2023-04-16T19:03:46.647Z,80.42
2023-04-16T19:06:13.528Z,80.11
2023-04-16T19:08:40.478Z,80.55
2023-04-16T19:11:07.309Z,81.05
2023-04-16T19:13:34.295Z,80.87
2023-04-16T19:16:02.401Z,81.03
2023-04-16T19:18:29.321Z,81.25
2023-04-16T19:21:02.281Z,81.40
2023-04-16T19:23:29.612Z,81.50
2023-04-16T19:25:57.212Z,81.60
2023-04-16T19:28:24.988Z,81.50
2023-04-16T19:30:52.818Z,81.62
2023-04-16T19:33:20.197Z,81.24
2023-04-16T19:35:47.528Z,81.46
2023-04-16T19:38:14.365Z,81.17
2023-04-16T19:40:44.562Z,82.17
2023-04-16T19:43:11.582Z,82.49
2023-04-16T19:45:46.353Z,83.01
2023-04-16T19:48:13.225Z,83.47
2023-04-16T19:50:44.055Z,83.75
2023-04-16T19:53:11.762Z,84.71
2023-04-16T19:55:42.139Z,84.22
2023-04-16T19:58:09.729Z,84.22
2023-04-16T20:00:38.872Z,84.58
2023-04-16T20:03:06.487Z,85.22
2023-04-16T20:05:33.736Z,85.23
2023-04-16T20:08:00.709Z,85.41
2023-04-16T20:10:28.147Z,85.31
2023-04-16T20:12:54.994Z,85.53
2023-04-16T20:15:21.887Z,86.19
2023-04-16T20:17:48.764Z,86.03
2023-04-16T20:20:16.592Z,86.29
2023-04-16T20:22:43.886Z,86.64
2023-04-16T20:25:10.920Z,86.47
2023-04-16T20:27:37.879Z,86.94
2023-04-16T20:30:06.455Z,86.27
2023-04-16T20:32:33.458Z,86.40
2023-04-16T20:35:00.577Z,86.71
2023-04-16T20:37:29.340Z,86.89
2023-04-16T20:39:56.574Z,86.97
2023-04-16T20:42:26.514Z,87.16
2023-04-16T20:44:56.785Z,87.23
2023-04-16T20:47:23.978Z,87.54
2023-04-16T20:49:53.118Z,87.42
2023-04-16T20:52:20.341Z,87.74
2023-04-16T20:54:48.220Z,87.94
2023-04-16T20:57:15.207Z,87.62
2023-04-16T20:59:42.460Z,88.00
2023-04-16T21:02:09.568Z,87.93
2023-04-16T21:04:36.548Z,87.69
2023-04-16T21:07:04.414Z,87.78
2023-04-16T21:09:31.790Z,87.49
2023-04-16T21:11:58.739Z,87.71
2023-04-16T21:14:25.618Z,87.86
2023-04-16T21:16:52.505Z,88.19
2023-04-16T21:19:19.485Z,88.37
2023-04-16T21:21:46.814Z,88.00
2023-04-16T21:24:13.837Z,88.18
2023-04-16T21:26:40.932Z,88.34
2023-04-16T21:29:07.871Z,88.84
2023-04-16T21:31:34.963Z,88.61
2023-04-16T21:34:02.016Z,88.61
2023-04-16T21:36:29.438Z,88.84
2023-04-16T21:38:56.408Z,88.56
2023-04-16T21:41:27.812Z,88.49
2023-04-16T21:43:54.734Z,88.55
2023-04-16T21:46:23.630Z,88.49
2023-04-16T21:48:51.025Z,89.07
2023-04-16T21:51:18.253Z,88.78
2023-04-16T21:53:45.113Z,88.55
2023-04-16T21:56:12.005Z,88.57
2023-04-16T21:58:38.814Z,88.96
2023-04-16T22:01:06.492Z,88.79
2023-04-16T22:03:34.837Z,88.75
2023-04-16T22:06:02.154Z,88.57
2023-04-16T22:08:29.909Z,88.77
2023-04-16T22:10:58.910Z,88.68
2023-04-16T22:13:30.199Z,89.16
2023-04-16T22:15:57.909Z,89.27
2023-04-16T22:18:25.844Z,89.28
2023-04-16T22:20:56.058Z,89.34
2023-04-16T22:23:26.207Z,89.28
2023-04-16T22:25:55.081Z,89.38
2023-04-16T22:28:22.089Z,89.91
2023-04-16T22:30:48.992Z,90.30
2023-04-16T22:33:16.042Z,90.59
2023-04-16T22:35:42.949Z,90.35
2023-04-16T22:38:10.308Z,90.46
2023-04-16T22:40:37.378Z,89.92
2023-04-16T22:43:04.695Z,90.31
2023-04-16T22:45:31.662Z,90.16
2023-04-16T22:47:58.749Z,90.24
2023-04-16T22:50:25.650Z,90.10
2023-04-16T22:52:52.461Z,90.30
2023-04-16T22:55:19.479Z,90.38
2023-04-16T22:57:47.687Z,91.17
2023-04-16T23:00:18.112Z,91.40
2023-04-16T23:02:45.741Z,91.47
2023-04-16T23:05:12.660Z,91.48
2023-04-16T23:07:39.512Z,91.85
2023-04-16T23:10:08.741Z,91.89
2023-04-16T23:12:37.583Z,91.68
2023-04-16T23:15:06.844Z,91.47
2023-04-16T23:17:34.084Z,91.73
2023-04-16T23:20:01.151Z,91.80
2023-04-16T23:22:28.195Z,91.67
2023-04-16T23:24:55.129Z,91.53
2023-04-16T23:27:22.010Z,91.58
2023-04-16T23:29:48.890Z,91.96
2023-04-16T23:32:15.787Z,92.40
2023-04-16T23:34:42.626Z,92.15
2023-04-16T23:37:09.517Z,92.71
2023-04-16T23:39:36.358Z,92.70
2023-04-16T23:42:03.397Z,92.71
2023-04-16T23:44:30.302Z,92.55
2023-04-16T23:46:57.536Z,92.08
2023-04-16T23:49:24.794Z,92.14
2023-04-16T23:51:51.715Z,92.79
2023-04-16T23:54:18.703Z,92.88
2023-04-16T23:56:45.753Z,92.93
2023-04-16T23:59:12.954Z,92.64
